Terminal Aerodrome Forecast
Issued by NWS

Home | Current Version | Previous Version | Text Only | Print | Product List | Glossary On
Versions: 1 2 3 4 5 6 7 8 9 10 11 12 13 14 15 16 17 18 19 20 21 22 23 24
000
FTUS44 KMOB 040546
TAFBFM
TAF
KBFM 040546Z 0406/0506 10012G18KT P6SM BKN040 OVC100
      TEMPO 0407/0409 -RA SCT025 OVC100
     FM041200 10011KT P6SM VCSH BKN007 OVC015
      TEMPO 0413/0417 2SM -TSRA BKN007CB OVC015=

USA.gov is the U.S. government's official web portal to all federal, state and local government web resources and services.